PWSweather.com
Personal Weather Stations
Station Observations
SANDHURSTWX
SandhurstGB

SandhurstGB

Lat: 51.3522, Lon: -0.7739

Elevation: 272.3

Station Type: Davis VP2

www.sandhurstweather.org.uk

High Low Average
Temperature 49.9°F9.9°C 41.8°F5.4°C 46.0°F7.8°C
Dew Point 46.3°F7.9°C 35.8°F2.1°C 42.1°F5.6°C
Winds 8.1 mph 13.0 kmh Calm Calm 4.0 mph W6.4 kmh W
Wind Gusts 11.5 mph18.5 kmh -- 5.0 mph8.0 kmh
Humidity 90% 79% 86%
Pressure 30.70 in1039.6 mb 30.52 in1033.5 mb -
Precipitation 0.00 in0.0 mm - -
Hour Temp Dew Point Humidity Winds Wind Gusts Pressure Precip Precip Rate Daily Precip Total
12:00 AM 46.5°F8.1°C 41.9°F5.5°C 84% 2.3 mph NW3.7 kmh NW 3.5 mph5.6 kmh 30.55 in1034.5 mb - 0.00 in0.0 mm 0.00 in0.0 mm
01:00 AM 46.4°F8.0°C 41.8°F5.4°C 84% 3.5 mph WNW5.6 kmh WNW 6.9 mph11.1 kmh 30.54 in1034.2 mb - 0.00 in0.0 mm 0.00 in0.0 mm
02:00 AM 46.4°F8.0°C 41.8°F5.4°C 84% 2.3 mph WNW3.7 kmh WNW 3.5 mph5.6 kmh 30.55 in1034.5 mb - 0.00 in0.0 mm 0.00 in0.0 mm
03:00 AM 46.3°F7.9°C 41.7°F5.4°C 84% 4.6 mph WNW7.4 kmh WNW 6.9 mph11.1 kmh 30.54 in1034.2 mb - 0.00 in0.0 mm 0.00 in0.0 mm
04:00 AM 46.4°F8.0°C 41.5°F5.3°C 83% 3.5 mph WNW5.6 kmh WNW 4.6 mph7.4 kmh 30.54 in1034.2 mb - 0.00 in0.0 mm 0.00 in0.0 mm
05:00 AM 46.0°F7.8°C 41.4°F5.2°C 84% 3.5 mph WNW5.6 kmh WNW 4.6 mph7.4 kmh 30.53 in1033.9 mb - 0.00 in0.0 mm 0.00 in0.0 mm
06:00 AM 44.1°F6.7°C 40.1°F4.5°C 86% 2.3 mph NW3.7 kmh NW 3.5 mph5.6 kmh 30.52 in1033.5 mb - 0.00 in0.0 mm 0.00 in0.0 mm
07:00 AM 42.7°F5.9°C 39.7°F4.3°C 89% 1.2 mph WNW1.9 kmh WNW 2.3 mph3.7 kmh 30.53 in1033.9 mb - 0.00 in0.0 mm 0.00 in0.0 mm
08:00 AM 42.9°F6.1°C 40.2°F4.6°C 90% Calm Calm -- 30.55 in1034.5 mb - 0.00 in0.0 mm 0.00 in0.0 mm
09:00 AM 44.1°F6.7°C 41.4°F5.2°C 90% 1.2 mph WNW1.9 kmh WNW 2.3 mph3.7 kmh 30.56 in1034.9 mb - 0.00 in0.0 mm 0.00 in0.0 mm
10:00 AM 46.1°F7.8°C 42.4°F5.8°C 87% 2.3 mph NW3.7 kmh NW 2.3 mph3.7 kmh 30.56 in1034.9 mb - 0.00 in0.0 mm 0.00 in0.0 mm
11:00 AM 47.8°F8.8°C 43.9°F6.6°C 86% 6.9 mph NW11.1 kmh NW 9.2 mph14.8 kmh 30.56 in1034.9 mb - 0.00 in0.0 mm 0.00 in0.0 mm
12:00 PM 49.9°F9.9°C 45.2°F7.3°C 84% 6.9 mph NW11.1 kmh NW 9.2 mph14.8 kmh 30.55 in1034.5 mb - 0.00 in0.0 mm 0.00 in0.0 mm
01:00 PM 49.6°F9.8°C 45.9°F7.7°C 87% 8.1 mph NW13.0 kmh NW 10.4 mph16.7 kmh 30.55 in1034.5 mb - 0.00 in0.0 mm 0.00 in0.0 mm
02:00 PM 49.4°F9.7°C 46.3°F7.9°C 89% 6.9 mph NW11.1 kmh NW 11.5 mph18.5 kmh 30.55 in1034.5 mb - 0.00 in0.0 mm 0.00 in0.0 mm
03:00 PM 49.1°F9.5°C 46.0°F7.8°C 89% 5.8 mph NW9.3 kmh NW 9.2 mph14.8 kmh 30.56 in1034.9 mb - 0.00 in0.0 mm 0.00 in0.0 mm
04:00 PM 48.9°F9.4°C 46.1°F7.8°C 90% 4.6 mph NW7.4 kmh NW 4.6 mph7.4 kmh 30.57 in1035.2 mb - 0.00 in0.0 mm 0.00 in0.0 mm
05:00 PM 48.0°F8.9°C 45.2°F7.3°C 90% 2.3 mph NW3.7 kmh NW 3.5 mph5.6 kmh 30.60 in1036.2 mb - 0.00 in0.0 mm 0.00 in0.0 mm
06:00 PM 45.9°F7.7°C 41.9°F5.5°C 86% 5.8 mph N9.3 kmh N 10.4 mph16.7 kmh 30.62 in1036.9 mb - 0.00 in0.0 mm 0.00 in0.0 mm
07:00 PM 44.2°F6.8°C 40.9°F4.9°C 88% 1.2 mph N1.9 kmh N 2.3 mph3.7 kmh 30.64 in1037.6 mb - 0.00 in0.0 mm 0.00 in0.0 mm
08:00 PM 43.7°F6.5°C 40.1°F4.5°C 87% Calm Calm 1.2 mph1.9 kmh 30.66 in1038.3 mb - 0.00 in0.0 mm 0.00 in0.0 mm
09:00 PM 44.6°F7.0°C 40.1°F4.5°C 84% 3.5 mph NE5.6 kmh NE 5.8 mph9.3 kmh 30.67 in1038.6 mb - 0.00 in0.0 mm 0.00 in0.0 mm
10:00 PM 43.6°F6.4°C 38.5°F3.6°C 82% 3.5 mph E5.6 kmh E 6.9 mph11.1 kmh 30.69 in1039.3 mb - 0.00 in0.0 mm 0.00 in0.0 mm
11:00 PM 41.8°F5.4°C 35.8°F2.1°C 79% 4.6 mph NE7.4 kmh NE 5.8 mph9.3 kmh 30.70 in1039.6 mb - 0.00 in0.0 mm 0.00 in0.0 mm